Time;durP1;ratioP1;P1;durP2;ratioP2;P2;SDS_P1;SDS_P2;PMS_P1;PMS_P2;Temp;Humidity;BMP_temperature;BMP_pressure;BME280_temperature;BME280_humidity;BME280_pressure;Samples;Min_cycle;Max_cycle;Signal;HPM_P1;HPM_P2
2021/10/20 00:00:47;;;;;;;6.55;2.40;;;15.00;99.90;;;;;;5152186;27;20019;-79
2021/10/20 00:03:13;;;;;;;4.55;2.28;;;14.90;99.90;;;;;;5156544;27;20072;-79
2021/10/20 00:05:39;;;;;;;4.32;2.20;;;15.00;99.90;;;;;;5162263;27;20022;-79
2021/10/20 00:08:07;;;;;;;4.53;2.28;;;15.00;99.90;;;;;;5166753;27;20033;-79
2021/10/20 00:10:34;;;;;;;6.95;2.30;;;15.00;99.90;;;;;;5164382;27;20026;-79
2021/10/20 00:13:00;;;;;;;3.75;2.20;;;15.00;99.90;;;;;;5164814;27;20471;-79
2021/10/20 00:15:26;;;;;;;5.50;2.35;;;15.00;99.90;;;;;;5166786;27;20015;-79
2021/10/20 00:17:54;;;;;;;3.55;1.85;;;15.10;99.90;;;;;;5158249;27;20023;-79
2021/10/20 00:20:22;;;;;;;6.03;1.80;;;15.00;99.90;;;;;;5144739;27;20024;-78
2021/10/20 00:22:50;;;;;;;4.60;1.50;;;15.10;99.90;;;;;;5141642;27;20395;-78
2021/10/20 00:25:16;;;;;;;3.35;1.55;;;15.10;99.90;;;;;;5137303;27;20027;-78
2021/10/20 00:27:42;;;;;;;5.15;1.50;;;15.10;99.90;;;;;;5136594;27;20023;-78
2021/10/20 00:30:10;;;;;;;5.95;1.60;;;15.10;99.90;;;;;;5137679;27;20071;-78
2021/10/20 00:32:36;;;;;;;3.60;1.77;;;15.10;99.90;;;;;;5154439;27;20038;-78
2021/10/20 00:35:02;;;;;;;5.38;1.88;;;15.10;99.90;;;;;;5156890;27;20022;-78
2021/10/20 00:37:27;;;;;;;2.35;1.67;;;15.10;99.90;;;;;;5156636;27;20058;-78
2021/10/20 00:39:53;;;;;;;2.88;1.10;;;15.20;99.90;;;;;;5156688;27;20087;-78
2021/10/20 00:42:21;;;;;;;6.45;1.98;;;15.20;99.90;;;;;;5158310;27;20030;-78
2021/10/20 00:44:53;;;;;;;4.07;1.90;;;15.20;99.90;;;;;;5156375;27;20482;-78
2021/10/20 00:47:20;;;;;;;4.03;1.25;;;15.30;99.90;;;;;;5157781;27;20260;-78
2021/10/20 00:49:46;;;;;;;3.60;1.52;;;15.30;99.90;;;;;;5156384;27;20067;-78
2021/10/20 00:52:12;;;;;;;5.82;1.45;;;15.20;99.90;;;;;;5156386;27;20475;-78
2021/10/20 00:54:38;;;;;;;3.60;1.77;;;15.30;99.90;;;;;;5154021;27;20027;-78
2021/10/20 00:57:06;;;;;;;3.55;1.73;;;15.30;99.90;;;;;;5156173;27;20129;-78
2021/10/20 00:59:36;;;;;;;5.40;1.42;;;15.20;99.90;;;;;;5156286;27;20031;-78
2021/10/20 01:02:05;;;;;;;3.78;1.60;;;15.20;99.90;;;;;;5156360;27;20114;-78
2021/10/20 01:04:32;;;;;;;4.53;1.35;;;15.10;99.90;;;;;;5157807;27;20054;-78
2021/10/20 01:06:58;;;;;;;4.38;1.67;;;15.70;99.90;;;;;;5156330;27;20139;-78
2021/10/20 01:09:23;;;;;;;5.70;1.35;;;15.10;99.90;;;;;;5146214;27;20047;-78
2021/10/20 01:11:49;;;;;;;8.98;2.03;;;15.10;99.90;;;;;;5135589;27;20479;-78
2021/10/20 01:14:15;;;;;;;3.40;1.30;;;15.10;99.90;;;;;;5134610;27;20383;-77
2021/10/20 01:16:42;;;;;;;9.07;1.65;;;15.10;99.90;;;;;;5134487;27;20019;-77
2021/10/20 01:19:09;;;;;;;3.35;1.50;;;15.10;99.90;;;;;;5134404;27;20038;-77
2021/10/20 01:21:35;;;;;;;4.65;1.52;;;15.10;99.90;;;;;;5149263;27;20023;-78
2021/10/20 01:24:01;;;;;;;3.05;1.48;;;15.10;99.90;;;;;;5156086;27;20046;-78
2021/10/20 01:26:27;;;;;;;6.47;1.75;;;15.10;99.90;;;;;;5156200;27;20467;-77
2021/10/20 01:28:53;;;;;;;3.53;1.67;;;15.10;99.90;;;;;;5156322;27;20030;-77
2021/10/20 01:31:19;;;;;;;5.80;1.45;;;15.10;99.90;;;;;;5152912;27;20395;-77
2021/10/20 01:33:44;;;;;;;7.07;1.80;;;15.10;99.90;;;;;;5154548;27;20071;-77
2021/10/20 01:36:10;;;;;;;3.95;1.63;;;15.10;99.90;;;;;;5156383;27;20094;-77
2021/10/20 01:38:36;;;;;;;3.85;1.75;;;15.00;99.90;;;;;;5155801;27;20022;-77
2021/10/20 01:41:02;;;;;;;6.22;2.15;;;15.00;99.90;;;;;;5154041;27;20463;-77
2021/10/20 01:43:48;;;;;;;7.63;2.33;;;15.00;99.90;;;;;;5150679;27;20107;-76
2021/10/20 01:46:19;;;;;;;6.28;2.40;;;14.90;99.90;;;;;;5134942;27;20024;-77
2021/10/20 01:48:46;;;;;;;4.28;2.08;;;14.90;99.90;;;;;;5135185;27;20045;-76
2021/10/20 01:51:12;;;;;;;7.80;2.45;;;14.90;99.90;;;;;;5134800;27;20023;-76
2021/10/20 01:53:37;;;;;;;4.53;1.80;;;14.90;99.90;;;;;;5135915;27;20042;-81
2021/10/20 01:56:08;;;;;;;9.07;2.47;;;14.90;99.90;;;;;;5136164;27;20495;-81
2021/10/20 01:58:34;;;;;;;5.50;1.83;;;14.90;99.90;;;;;;5135767;27;20015;-81
2021/10/20 02:00:59;;;;;;;5.25;2.13;;;14.90;99.90;;;;;;5134925;27;20023;-78
2021/10/20 02:03:27;;;;;;;5.53;1.92;;;14.80;99.90;;;;;;5134530;27;20080;-78
2021/10/20 02:05:54;;;;;;;6.22;1.73;;;14.80;99.90;;;;;;5135250;27;20114;-78
2021/10/20 02:08:20;;;;;;;5.28;1.83;;;14.80;99.90;;;;;;5134169;27;20019;-78
2021/10/20 02:10:45;;;;;;;4.15;2.38;;;14.80;99.90;;;;;;5134222;27;20482;-78
2021/10/20 02:13:11;;;;;;;9.43;2.30;;;14.80;99.90;;;;;;5133711;27;20034;-78
2021/10/20 02:15:36;;;;;;;6.47;2.20;;;14.80;99.90;;;;;;5135862;27;20065;-78
2021/10/20 02:18:05;;;;;;;5.63;2.47;;;14.80;99.90;;;;;;5137978;27;20052;-78
2021/10/20 02:20:32;;;;;;;5.28;2.85;;;14.90;99.90;;;;;;5156418;27;20056;-79
2021/10/20 02:22:58;;;;;;;5.22;2.53;;;14.90;99.90;;;;;;5155147;27;20031;-76
2021/10/20 02:25:24;;;;;;;6.95;2.05;;;14.90;99.90;;;;;;5155056;27;20478;-76
2021/10/20 02:27:51;;;;;;;9.00;2.90;;;14.90;99.90;;;;;;5153794;27;20029;-76
2021/10/20 02:30:17;;;;;;;5.60;2.08;;;14.90;99.90;;;;;;5157541;27;20027;-77
2021/10/20 02:32:43;;;;;;;8.88;2.78;;;14.90;99.90;;;;;;5140885;27;20054;-77
2021/10/20 02:35:10;;;;;;;5.68;2.15;;;14.90;99.90;;;;;;5137842;28;20023;-77
2021/10/20 02:37:36;;;;;;;7.75;2.83;;;15.00;99.90;;;;;;5137491;28;20429;-77
2021/10/20 02:40:04;;;;;;;5.90;2.53;;;14.90;99.90;;;;;;5158367;27;20015;-77
2021/10/20 02:42:30;;;;;;;6.70;2.13;;;14.90;99.90;;;;;;5158371;27;20029;-77
2021/10/20 02:44:56;;;;;;;5.15;2.75;;;14.90;99.90;;;;;;5158548;27;20446;-77
2021/10/20 02:47:22;;;;;;;5.00;2.35;;;14.90;99.90;;;;;;5157985;27;20027;-77
2021/10/20 02:49:48;;;;;;;7.95;3.72;;;15.00;99.90;;;;;;5159523;27;20019;-77
2021/10/20 02:52:14;;;;;;;3.97;2.10;;;14.90;99.90;;;;;;5159611;27;20019;-77
2021/10/20 02:54:40;;;;;;;6.35;2.65;;;14.90;99.90;;;;;;5162497;27;20027;-77
2021/10/20 02:57:06;;;;;;;4.32;2.55;;;15.00;99.90;;;;;;5162020;27;20030;-77
2021/10/20 02:59:31;;;;;;;8.15;2.42;;;15.00;99.90;;;;;;5146405;27;20090;-77
2021/10/20 03:01:57;;;;;;;6.35;2.80;;;15.00;99.90;;;;;;5142911;27;20033;-77
2021/10/20 03:04:22;;;;;;;6.97;2.97;;;15.00;99.90;;;;;;5141138;27;20058;-77
2021/10/20 03:06:48;;;;;;;6.68;2.70;;;15.00;99.90;;;;;;5141592;27;20023;-77
2021/10/20 03:09:14;;;;;;;5.18;3.03;;;15.00;99.90;;;;;;5141570;27;20016;-77
2021/10/20 03:11:39;;;;;;;6.40;1.85;;;15.00;99.90;;;;;;5146623;27;20030;-77
2021/10/20 03:14:05;;;;;;;8.50;2.92;;;15.00;99.90;;;;;;5162178;27;20037;-77
2021/10/20 03:16:30;;;;;;;9.50;2.65;;;15.00;99.90;;;;;;5163521;27;20038;-77
2021/10/20 03:18:57;;;;;;;22.33;2.55;;;15.10;99.90;;;;;;5162670;27;20163;-77
2021/10/20 03:21:23;;;;;;;5.95;2.10;;;15.00;99.90;;;;;;5161946;27;20023;-77
2021/10/20 03:23:48;;;;;;;5.65;2.60;;;15.00;99.90;;;;;;5162974;27;20011;-77
2021/10/20 03:26:14;;;;;;;7.45;2.70;;;15.10;99.90;;;;;;5163123;27;20091;-77
2021/10/20 03:28:40;;;;;;;5.35;1.98;;;15.00;99.90;;;;;;5145701;27;20035;-77
2021/10/20 03:31:05;;;;;;;7.97;3.05;;;15.10;99.90;;;;;;5160514;27;20510;-77
2021/10/20 03:33:31;;;;;;;7.75;3.28;;;15.10;99.90;;;;;;5161523;27;20053;-77
2021/10/20 03:35:57;;;;;;;5.85;2.70;;;15.10;99.90;;;;;;5162980;27;20015;-77
2021/10/20 03:38:22;;;;;;;6.38;3.10;;;15.10;99.90;;;;;;5161451;27;20026;-77
2021/10/20 03:40:48;;;;;;;6.00;2.78;;;15.10;99.90;;;;;;5162755;27;20459;-77
2021/10/20 03:43:13;;;;;;;7.07;2.35;;;15.10;99.90;;;;;;5161721;27;20030;-77
2021/10/20 03:45:39;;;;;;;5.22;2.38;;;15.10;99.90;;;;;;5162354;27;20027;-77
2021/10/20 03:48:05;;;;;;;6.97;3.08;;;15.20;99.90;;;;;;5160839;27;20463;-77
2021/10/20 03:50:30;;;;;;;5.35;2.47;;;15.20;99.90;;;;;;5161420;27;20058;-77
2021/10/20 03:52:56;;;;;;;9.23;2.65;;;15.20;99.90;;;;;;5161251;27;20106;-78
2021/10/20 03:55:21;;;;;;;10.13;3.35;;;15.30;99.90;;;;;;5160839;27;20061;-77
2021/10/20 03:57:47;;;;;;;7.35;2.85;;;15.30;99.90;;;;;;5160255;27;20033;-77
2021/10/20 04:00:16;;;;;;;4.75;2.50;;;15.30;99.90;;;;;;5162389;27;20018;-77
2021/10/20 04:02:44;;;;;;;6.15;2.55;;;15.40;99.90;;;;;;5161869;27;20026;-78
2021/10/20 04:05:15;;;;;;;7.00;3.60;;;15.40;99.90;;;;;;5160572;27;20018;-77
2021/10/20 04:07:41;;;;;;;6.65;3.03;;;15.30;99.90;;;;;;5160414;27;20019;-77
2021/10/20 04:10:10;;;;;;;6.80;3.20;;;15.40;99.90;;;;;;5162499;27;20019;-77
2021/10/20 04:12:41;;;;;;;6.55;2.90;;;15.30;99.90;;;;;;5161707;27;20027;-78
2021/10/20 04:15:07;;;;;;;4.45;2.75;;;15.20;99.90;;;;;;5160421;27;20479;-77
2021/10/20 04:17:33;;;;;;;8.45;3.25;;;15.20;99.90;;;;;;5160620;27;20015;-77
2021/10/20 04:19:59;;;;;;;7.20;2.78;;;15.20;99.90;;;;;;5161362;27;20049;-77
2021/10/20 04:22:24;;;;;;;5.82;3.13;;;15.30;99.90;;;;;;5161471;27;20382;-77
2021/10/20 04:24:50;;;;;;;8.32;3.85;;;15.20;99.90;;;;;;5161713;27;20019;-77
2021/10/20 04:27:16;;;;;;;9.63;3.72;;;15.20;99.90;;;;;;5161374;27;20143;-77
2021/10/20 04:29:41;;;;;;;7.18;3.15;;;15.20;99.90;;;;;;5160187;27;20410;-77
2021/10/20 04:32:07;;;;;;;5.40;3.22;;;15.20;99.90;;;;;;5160382;27;20038;-77
2021/10/20 04:34:32;;;;;;;10.98;3.30;;;15.30;99.90;;;;;;5144895;27;20027;-77
2021/10/20 04:36:58;;;;;;;7.20;3.33;;;15.30;99.90;;;;;;5141316;27;20468;-77
2021/10/20 04:39:23;;;;;;;5.75;2.38;;;15.40;99.90;;;;;;5140375;27;20076;-77
2021/10/20 04:41:49;;;;;;;5.20;2.90;;;15.40;99.90;;;;;;5141009;27;20019;-77
2021/10/20 04:44:16;;;;;;;8.70;3.78;;;15.50;99.90;;;;;;5141043;27;20023;-77
2021/10/20 04:46:41;;;;;;;7.38;3.38;;;15.50;99.90;;;;;;5139436;27;20027;-77
2021/10/20 04:49:07;;;;;;;7.30;3.78;;;15.50;99.90;;;;;;5140423;27;20027;-77
2021/10/20 04:51:34;;;;;;;7.90;2.78;;;15.50;99.90;;;;;;5140762;27;20020;-76
2021/10/20 04:53:59;;;;;;;6.50;3.05;;;15.50;99.90;;;;;;5139830;27;20031;-77
2021/10/20 04:56:25;;;;;;;8.02;3.15;;;15.50;99.90;;;;;;5139186;27;20352;-77
2021/10/20 04:58:51;;;;;;;7.95;2.85;;;15.50;99.90;;;;;;5140381;27;20098;-77
2021/10/20 05:01:16;;;;;;;6.60;2.78;;;15.50;99.90;;;;;;5139047;27;20045;-77
2021/10/20 05:03:42;;;;;;;5.90;2.38;;;15.50;99.90;;;;;;5139079;27;20022;-77
2021/10/20 05:06:07;;;;;;;7.32;3.13;;;15.50;99.90;;;;;;5153714;27;20029;-77
2021/10/20 05:08:34;;;;;;;6.03;2.53;;;15.50;99.90;;;;;;5159943;27;20014;-77
2021/10/20 05:10:59;;;;;;;5.60;2.45;;;15.50;99.90;;;;;;5161533;27;20027;-77
2021/10/20 05:13:25;;;;;;;8.02;3.30;;;15.40;99.90;;;;;;5160992;27;20167;-77
2021/10/20 05:15:51;;;;;;;9.70;3.33;;;15.50;99.90;;;;;;5159836;27;20087;-77
2021/10/20 05:18:16;;;;;;;12.05;3.50;;;15.50;99.90;;;;;;5159503;27;20386;-77
2021/10/20 05:20:42;;;;;;;5.68;2.28;;;15.50;99.90;;;;;;5154176;27;20019;-77
2021/10/20 05:23:11;;;;;;;4.93;2.63;;;15.50;99.90;;;;;;5140061;27;20535;-77
2021/10/20 05:25:38;;;;;;;7.13;2.97;;;15.50;99.90;;;;;;5140641;27;20034;-77
2021/10/20 05:28:05;;;;;;;4.78;2.53;;;15.50;99.90;;;;;;5140159;27;20038;-77
2021/10/20 05:30:30;;;;;;;5.85;2.97;;;15.60;99.90;;;;;;5138882;27;20027;-77
2021/10/20 05:32:56;;;;;;;8.98;2.80;;;15.60;99.90;;;;;;5139981;27;20592;-77
2021/10/20 05:35:22;;;;;;;4.68;2.45;;;15.60;99.90;;;;;;5140315;27;20022;-77
2021/10/20 05:37:50;;;;;;;6.00;2.47;;;15.60;99.90;;;;;;5154821;27;20471;-77
2021/10/20 05:40:16;;;;;;;6.70;2.83;;;15.60;99.90;;;;;;5138572;27;20019;-77
2021/10/20 05:42:42;;;;;;;5.68;2.88;;;15.60;99.90;;;;;;5139901;27;20110;-77
2021/10/20 05:45:08;;;;;;;6.90;2.90;;;15.60;99.90;;;;;;5138145;27;20059;-77
2021/10/20 05:47:33;;;;;;;8.25;2.78;;;15.60;99.90;;;;;;5156484;27;20019;-77
2021/10/20 05:49:59;;;;;;;8.77;2.70;;;15.60;99.90;;;;;;5158845;27;20536;-77
2021/10/20 05:52:25;;;;;;;5.95;2.70;;;15.60;99.90;;;;;;5159347;27;20090;-77
2021/10/20 05:54:50;;;;;;;3.55;2.10;;;15.60;99.90;;;;;;5160399;27;20105;-77
2021/10/20 05:57:16;;;;;;;6.40;2.63;;;16.20;99.90;;;;;;5158805;27;20056;-77
2021/10/20 05:59:41;;;;;;;12.30;3.05;;;15.60;99.90;;;;;;5157309;27;20105;-76
2021/10/20 06:02:12;;;;;;;7.35;2.97;;;15.70;99.90;;;;;;5157048;27;20019;-77
2021/10/20 06:04:38;;;;;;;5.28;2.45;;;15.70;99.90;;;;;;5155335;27;20018;-82
2021/10/20 06:07:03;;;;;;;6.30;2.47;;;15.80;99.90;;;;;;5157866;27;20099;-82
2021/10/20 06:09:29;;;;;;;7.45;2.83;;;15.80;99.90;;;;;;5157800;27;20057;-82
2021/10/20 06:11:54;;;;;;;6.78;2.38;;;15.80;99.90;;;;;;5155993;27;20031;-82
2021/10/20 06:14:20;;;;;;;7.50;2.53;;;18.50;99.90;;;;;;5156312;27;20522;-79
2021/10/20 06:16:46;;;;;;;5.95;2.70;;;15.70;99.90;;;;;;5155511;27;20019;-78
2021/10/20 06:19:11;;;;;;;6.63;2.10;;;15.70;99.90;;;;;;5138360;27;20118;-78
2021/10/20 06:21:37;;;;;;;5.60;1.85;;;15.70;99.90;;;;;;5134618;27;20384;-78
2021/10/20 06:24:03;;;;;;;4.32;1.90;;;15.70;99.90;;;;;;5133835;27;20023;-77
2021/10/20 06:26:28;;;;;;;4.38;2.10;;;15.70;99.90;;;;;;5133113;27;20027;-77
2021/10/20 06:28:55;;;;;;;3.05;2.10;;;15.60;99.90;;;;;;5140776;27;20081;-77
2021/10/20 06:31:21;;;;;;;6.35;2.08;;;15.60;99.90;;;;;;5154776;27;20026;-77
2021/10/20 06:33:46;;;;;;;3.83;2.00;;;15.70;99.90;;;;;;5153613;27;20034;-77
2021/10/20 06:36:19;;;;;;;12.75;3.17;;;15.60;99.90;;;;;;5155052;27;20116;-77
2021/10/20 06:38:45;;;;;;;3.80;2.08;;;15.60;99.90;;;;;;5154939;27;20018;-77
2021/10/20 06:41:10;;;;;;;6.20;1.95;;;15.60;99.90;;;;;;5152680;27;20018;-77
2021/10/20 06:43:36;;;;;;;5.38;1.77;;;15.60;99.90;;;;;;5153125;27;20071;-77
2021/10/20 06:46:02;;;;;;;5.22;1.95;;;15.70;99.90;;;;;;5153528;27;20382;-77
2021/10/20 06:48:28;;;;;;;7.07;2.28;;;15.70;99.90;;;;;;5154770;27;20460;-77
2021/10/20 06:50:53;;;;;;;2.72;1.38;;;15.70;99.90;;;;;;5140146;27;20048;-78
2021/10/20 06:53:19;;;;;;;6.95;2.17;;;15.80;99.90;;;;;;5132679;27;20053;-78
2021/10/20 06:55:45;;;;;;;5.55;2.03;;;15.80;99.90;;;;;;5155153;27;20015;-77
2021/10/20 06:58:11;;;;;;;4.93;2.35;;;15.70;99.90;;;;;;5154387;27;20015;-78
2021/10/20 07:00:37;;;;;;;4.95;1.98;;;15.80;99.90;;;;;;5153462;27;20025;-77
2021/10/20 07:03:03;;;;;;;2.75;1.77;;;15.80;99.90;;;;;;5154675;27;20475;-77
2021/10/20 07:05:28;;;;;;;4.32;1.95;;;15.70;99.90;;;;;;5153608;27;20148;-77
2021/10/20 07:07:54;;;;;;;5.28;2.33;;;15.60;99.90;;;;;;5147210;27;20092;-77
2021/10/20 07:10:19;;;;;;;9.70;2.47;;;15.60;99.90;;;;;;5134244;28;20039;-77
2021/10/20 07:12:45;;;;;;;3.95;1.80;;;15.50;99.90;;;;;;5132472;28;20387;-77
2021/10/20 07:15:11;;;;;;;4.53;1.63;;;15.50;99.90;;;;;;5134138;28;20076;-77
2021/10/20 07:17:36;;;;;;;3.70;2.05;;;15.40;99.90;;;;;;5132641;28;20454;-77
2021/10/20 07:20:02;;;;;;;4.75;2.15;;;15.40;99.90;;;;;;5134122;27;20084;-77
2021/10/20 07:22:28;;;;;;;12.77;2.38;;;15.30;99.90;;;;;;5134001;27;20381;-77
2021/10/20 07:24:54;;;;;;;7.07;2.50;;;15.30;99.90;;;;;;5134281;28;20027;-78
2021/10/20 07:27:19;;;;;;;8.68;2.33;;;15.30;99.90;;;;;;5134068;28;20072;-78
2021/10/20 07:29:47;;;;;;;6.10;1.73;;;15.20;99.90;;;;;;5134035;27;20023;-78
2021/10/20 07:32:13;;;;;;;5.25;2.85;;;15.20;99.90;;;;;;5132820;28;20440;-78
2021/10/20 07:34:39;;;;;;;6.50;2.40;;;15.10;99.90;;;;;;5132819;28;20019;-78
2021/10/20 07:37:04;;;;;;;5.72;2.00;;;15.10;99.90;;;;;;5132967;27;20023;-78
2021/10/20 07:39:30;;;;;;;4.85;2.72;;;15.10;99.90;;;;;;5135613;27;20023;-78
2021/10/20 07:41:56;;;;;;;4.47;2.20;;;15.10;99.90;;;;;;5136747;27;20019;-78
2021/10/20 07:44:21;;;;;;;5.72;2.05;;;15.10;99.90;;;;;;5136340;27;20023;-78
2021/10/20 07:46:47;;;;;;;6.55;2.63;;;15.10;99.90;;;;;;5136363;27;20022;-78
2021/10/20 07:49:13;;;;;;;5.95;2.50;;;15.00;99.90;;;;;;5136616;27;20041;-78
2021/10/20 07:51:39;;;;;;;3.95;2.25;;;14.90;99.90;;;;;;5138137;27;20030;-78
2021/10/20 07:54:04;;;;;;;8.55;3.10;;;14.90;99.90;;;;;;5138134;27;20019;-79
2021/10/20 07:56:33;;;;;;;7.80;2.42;;;14.90;99.90;;;;;;5138173;27;20019;-79
2021/10/20 07:59:00;;;;;;;;;;;14.90;99.90;;;;;;5139704;27;20071;-79
2021/10/20 08:01:25;;;;;;;5.30;2.75;;;14.90;99.90;;;;;;5147584;27;20383;-79
2021/10/20 08:03:51;;;;;;;5.47;2.50;;;15.00;99.90;;;;;;5155894;27;20051;-78
2021/10/20 08:06:17;;;;;;;5.28;2.67;;;15.00;99.90;;;;;;5135716;27;20050;-77
2021/10/20 08:08:43;;;;;;;8.57;3.33;;;15.00;99.90;;;;;;5135574;27;20467;-77
2021/10/20 08:11:08;;;;;;;6.40;2.30;;;15.00;99.90;;;;;;5135658;27;20025;-77
2021/10/20 08:13:34;;;;;;;6.43;2.35;;;15.00;99.90;;;;;;5135440;27;20023;-77
2021/10/20 08:16:00;;;;;;;6.65;2.80;;;15.00;99.90;;;;;;5135499;27;20038;-77
2021/10/20 08:18:25;;;;;;;4.97;3.00;;;15.00;99.90;;;;;;5136234;27;20021;-78
2021/10/20 08:20:51;;;;;;;6.78;2.92;;;15.10;99.90;;;;;;5136393;27;20038;-78
2021/10/20 08:23:17;;;;;;;4.18;1.63;;;15.10;99.90;;;;;;5137666;27;20027;-79
2021/10/20 08:25:42;;;;;;;6.68;2.42;;;15.20;99.90;;;;;;5140200;27;20043;-79
2021/10/20 08:28:08;;;;;;;4.38;2.45;;;16.20;99.90;;;;;;5157627;27;20022;-79
2021/10/20 08:30:34;;;;;;;6.13;2.88;;;15.30;99.90;;;;;;5158018;27;20360;-79
2021/10/20 08:33:00;;;;;;;5.55;2.75;;;15.40;99.90;;;;;;5159700;27;20536;-79
2021/10/20 08:35:25;;;;;;;4.05;2.08;;;15.60;99.90;;;;;;5159551;27;20023;-79
2021/10/20 08:38:00;;;;;;;5.68;2.75;;;15.60;99.90;;;;;;5158423;27;20071;-80
2021/10/20 08:40:29;;;;;;;5.38;2.10;;;15.70;99.90;;;;;;5156695;27;20465;-78
2021/10/20 08:42:55;;;;;;;5.82;2.40;;;15.80;99.90;;;;;;5136993;27;20047;-78
2021/10/20 08:45:22;;;;;;;4.82;2.60;;;15.80;99.90;;;;;;5137046;27;20023;-78
2021/10/20 08:47:48;;;;;;;6.80;2.58;;;16.00;99.90;;;;;;5137072;27;20112;-77
2021/10/20 08:50:40;;;;;;;5.75;2.75;;;16.10;99.90;;;;;;5139679;27;20457;-79
2021/10/20 08:53:06;;;;;;;6.82;3.08;;;16.20;99.90;;;;;;5133480;27;20042;-79
2021/10/20 08:55:33;;;;;;;7.50;3.00;;;16.20;99.90;;;;;;5138330;27;20479;-79
2021/10/20 08:58:00;;;;;;;5.95;2.42;;;16.30;99.90;;;;;;5138717;27;20019;-79
2021/10/20 09:00:28;;;;;;;5.85;2.95;;;16.40;99.90;;;;;;5136755;27;20023;-79
2021/10/20 09:02:54;;;;;;;5.75;2.75;;;16.30;99.90;;;;;;5136707;27;20027;-79
2021/10/20 09:05:27;;;;;;;6.78;3.08;;;16.40;99.90;;;;;;5138208;27;20551;-79
2021/10/20 09:07:55;;;;;;;5.60;3.13;;;16.30;99.90;;;;;;5137740;27;20030;-79
2021/10/20 09:10:23;;;;;;;5.38;3.42;;;16.30;99.90;;;;;;5137141;27;20026;-79
2021/10/20 09:12:50;;;;;;;5.80;3.03;;;16.40;99.90;;;;;;5136589;27;20083;-79
2021/10/20 09:15:22;;;;;;;7.90;4.03;;;16.50;99.90;;;;;;5137202;27;20092;-79
2021/10/20 09:17:57;;;;;;;6.43;3.17;;;16.60;99.90;;;;;;5136403;27;20026;-78
2021/10/20 09:20:34;;;;;;;6.93;3.75;;;16.70;99.90;;;;;;5134906;27;20015;-78
2021/10/20 09:23:05;;;;;;;7.00;3.65;;;16.70;99.90;;;;;;5134367;27;20022;-77
2021/10/20 09:25:44;;;;;;;7.70;4.00;;;16.80;99.90;;;;;;5134497;27;20027;-79
2021/10/20 09:28:12;;;;;;;;;;;16.70;99.90;;;;;;5135469;27;20023;-78
2021/10/20 09:30:40;;;;;;;6.93;3.28;;;16.70;99.90;;;;;;5137073;27;19911;-78
2021/10/20 09:33:08;;;;;;;5.15;2.97;;;16.70;99.90;;;;;;5134953;27;20039;-78
2021/10/20 09:35:34;;;;;;;9.63;4.07;;;16.80;99.90;;;;;;5135704;27;20015;-78
2021/10/20 09:38:00;;;;;;;5.30;3.00;;;16.80;99.90;;;;;;5135799;27;20118;-78
2021/10/20 09:40:38;;;;;;;7.38;3.20;;;16.80;99.90;;;;;;5134624;27;20020;-78
2021/10/20 09:43:05;;;;;;;5.25;3.38;;;16.80;99.90;;;;;;5135978;27;20046;-78
2021/10/20 09:45:37;;;;;;;8.30;3.70;;;16.70;99.90;;;;;;5135918;27;20023;-78
2021/10/20 09:48:29;;;;;;;5.20;3.85;;;16.70;99.90;;;;;;5136085;27;20046;-78
2021/10/20 09:50:58;;;;;;;6.47;3.53;;;16.60;99.90;;;;;;5147091;27;20113;-78
2021/10/20 09:53:28;;;;;;;6.22;3.60;;;16.60;99.90;;;;;;5155478;27;20035;-78
2021/10/20 09:55:54;;;;;;;10.77;3.60;;;16.60;99.90;;;;;;5156949;27;20025;-78
2021/10/20 09:58:19;;;;;;;5.03;2.10;;;16.60;99.90;;;;;;5156281;27;20023;-78
2021/10/20 10:00:45;;;;;;;5.63;2.85;;;16.60;99.90;;;;;;5147664;27;20047;-83
2021/10/20 10:03:12;;;;;;;7.65;3.40;;;16.50;99.90;;;;;;5137024;27;20187;-82
2021/10/20 10:05:38;;;;;;;5.80;3.28;;;16.50;99.90;;;;;;5136656;27;20049;-83
2021/10/20 10:08:04;;;;;;;3.83;2.70;;;16.60;99.90;;;;;;5136886;27;20048;-83
2021/10/20 10:10:30;;;;;;;7.13;3.00;;;16.70;99.90;;;;;;5136537;27;20019;-83
2021/10/20 10:12:59;;;;;;;8.57;3.75;;;16.80;99.90;;;;;;5136232;27;20114;-82
2021/10/20 10:15:26;;;;;;;7.97;3.90;;;16.80;99.90;;;;;;5138548;27;20117;-81
2021/10/20 10:17:55;;;;;;;3.78;2.30;;;17.00;99.90;;;;;;5144105;27;20023;-81
2021/10/20 10:20:20;;;;;;;;;;;17.10;99.90;;;;;;5158867;27;20479;-81
2021/10/20 10:22:49;;;;;;;5.45;2.78;;;17.20;99.90;;;;;;5158291;27;20082;-80
2021/10/20 10:25:15;;;;;;;;;;;17.40;99.90;;;;;;5162958;27;20019;-80
2021/10/20 10:28:06;;;;;;;5.10;2.78;;;17.40;99.90;;;;;;5164837;27;20407;-80
2021/10/20 10:30:44;;;;;;;2.60;1.50;;;17.40;99.90;;;;;;5167223;27;20065;-80
2021/10/20 10:33:16;;;;;;;4.85;1.85;;;17.30;99.90;;;;;;5147171;27;20023;-80
2021/10/20 10:35:41;;;;;;;4.20;1.95;;;18.80;99.90;;;;;;5145828;28;20076;-80
2021/10/20 10:38:07;;;;;;;6.28;1.63;;;17.20;99.90;;;;;;5144396;28;20019;-80
2021/10/20 10:40:32;;;;;;;4.53;2.03;;;17.90;99.90;;;;;;5143103;28;20023;-80
2021/10/20 10:43:07;;;;;;;3.05;1.90;;;17.20;99.90;;;;;;5140899;28;20027;-81
2021/10/20 10:45:33;;;;;;;3.63;1.90;;;17.30;99.90;;;;;;5138450;28;20541;-81
2021/10/20 10:48:03;;;;;;;3.80;1.65;;;17.40;99.90;;;;;;5140152;27;20016;-79
2021/10/20 10:50:59;;;;;;;5.45;2.25;;;17.20;99.90;;;;;;5136545;28;20061;-79
2021/10/20 10:53:34;;;;;;;5.43;1.77;;;17.20;99.90;;;;;;5135778;28;20074;-79
2021/10/20 10:56:09;;;;;;;5.13;1.70;;;17.20;99.90;;;;;;5136084;28;20559;-79
2021/10/20 10:59:00;;;;;;;4.82;1.35;;;17.20;99.90;;;;;;5138053;28;20564;-79
2021/10/20 11:01:44;;;;;;;4.25;2.00;;;17.20;99.90;;;;;;5136098;28;20468;-79
2021/10/20 11:04:21;;;;;;;2.67;1.13;;;17.30;99.90;;;;;;5137773;27;20015;-79
2021/10/20 11:06:47;;;;;;;2.90;1.23;;;17.30;99.90;;;;;;5137155;27;20072;-79
2021/10/20 11:09:22;;;;;;;8.60;1.92;;;17.40;99.90;;;;;;5137211;28;20031;-79
2021/10/20 11:11:53;;;;;;;3.10;1.42;;;17.40;99.90;;;;;;5137905;27;20040;-82
2021/10/20 11:14:20;;;;;;;2.80;1.55;;;17.30;99.90;;;;;;5137936;27;20034;-81
2021/10/20 11:16:47;;;;;;;4.82;1.95;;;17.40;99.90;;;;;;5140986;27;20047;-81
2021/10/20 11:19:13;;;;;;;2.05;1.10;;;17.40;99.90;;;;;;5142260;27;20026;-81
2021/10/20 11:21:39;;;;;;;2.67;1.48;;;17.50;99.90;;;;;;5140111;27;20047;-81
2021/10/20 11:24:07;;;;;;;4.50;1.38;;;17.40;99.90;;;;;;5141225;27;20056;-81
2021/10/20 11:26:35;;;;;;;5.40;1.60;;;19.10;99.90;;;;;;5140736;27;20056;-81
2021/10/20 11:29:08;;;;;;;3.60;1.63;;;17.30;99.90;;;;;;5140423;27;20471;-81
2021/10/20 11:31:38;;;;;;;2.67;1.63;;;17.30;99.90;;;;;;5140085;27;20475;-81
2021/10/20 11:34:22;;;;;;;1.90;1.08;;;17.30;99.90;;;;;;5140026;27;20038;-78
2021/10/20 11:36:48;;;;;;;3.28;1.15;;;17.30;99.90;;;;;;5139280;27;20482;-78
2021/10/20 11:39:14;;;;;;;3.88;1.27;;;17.20;99.90;;;;;;5138228;27;20136;-78
2021/10/20 11:41:54;;;;;;;5.13;1.30;;;17.20;99.90;;;;;;5136689;27;20484;-78
2021/10/20 11:44:28;;;;;;;4.70;0.90;;;17.30;99.90;;;;;;5136492;27;20027;-78
2021/10/20 11:46:58;;;;;;;3.72;1.40;;;17.30;99.90;;;;;;5136167;27;20033;-78
2021/10/20 11:49:24;;;;;;;5.53;1.90;;;17.30;99.90;;;;;;5151527;27;20463;-78
2021/10/20 11:51:50;;;;;;;4.50;1.63;;;17.30;99.90;;;;;;5158360;27;20079;-78
2021/10/20 11:54:17;;;;;;;3.50;0.85;;;17.40;99.90;;;;;;5164819;27;20062;-80
2021/10/20 11:56:52;;;;;;;7.13;1.45;;;17.40;99.90;;;;;;5163954;27;20019;-80
2021/10/20 11:59:37;;;;;;;2.05;0.90;;;17.40;99.90;;;;;;5159530;27;20011;-80
2021/10/20 12:02:04;;;;;;;3.42;1.63;;;17.40;99.90;;;;;;5150066;27;20031;-77
2021/10/20 12:04:30;;;;;;;2.60;1.20;;;17.40;99.90;;;;;;5145258;27;20027;-77
2021/10/20 12:06:59;;;;;;;3.92;1.48;;;17.50;99.90;;;;;;5157200;27;20101;-77
2021/10/20 12:09:28;;;;;;;5.28;1.38;;;17.50;99.90;;;;;;5156175;27;20117;-77
2021/10/20 12:11:55;;;;;;;18.13;2.53;;;17.40;99.90;;;;;;5156241;27;20027;-77
2021/10/20 12:14:22;;;;;;;9.43;2.50;;;17.40;99.90;;;;;;5157354;27;20472;-76
2021/10/20 12:16:49;;;;;;;3.58;1.15;;;17.40;99.90;;;;;;5157526;27;20015;-77
2021/10/20 12:19:15;;;;;;;2.75;1.10;;;17.40;99.90;;;;;;5156521;27;20050;-77
2021/10/20 12:21:43;;;;;;;3.65;1.25;;;17.40;99.90;;;;;;5157694;27;20498;-77
2021/10/20 12:24:15;;;;;;;2.28;1.05;;;17.50;99.90;;;;;;5158703;27;20019;-79
2021/10/20 12:26:41;;;;;;;4.78;1.83;;;17.40;99.90;;;;;;5159018;27;20018;-80
2021/10/20 12:29:08;;;;;;;7.00;1.73;;;17.50;99.90;;;;;;5158507;27;20030;-80
2021/10/20 12:31:35;;;;;;;5.57;1.67;;;17.50;99.90;;;;;;5157923;27;20018;-80
2021/10/20 12:34:02;;;;;;;2.30;1.40;;;17.60;99.90;;;;;;5157529;27;20019;-79
2021/10/20 12:36:30;;;;;;;3.67;1.10;;;17.60;99.90;;;;;;5143836;27;20042;-78
2021/10/20 12:38:58;;;;;;;2.95;1.50;;;17.60;99.90;;;;;;5135435;27;20023;-78
2021/10/20 12:41:27;;;;;;;3.78;1.17;;;17.60;99.90;;;;;;5135379;27;20118;-78
2021/10/20 12:43:55;;;;;;;2.70;1.33;;;17.70;99.90;;;;;;5135112;27;20019;-78
2021/10/20 12:46:22;;;;;;;2.53;1.10;;;18.80;99.90;;;;;;5136545;27;20365;-78
2021/10/20 12:48:52;;;;;;;6.00;1.35;;;17.80;99.90;;;;;;5154493;27;20028;-78